createdAt,value
2022-09-18T00:00:50.737Z,10.49
2022-09-18T00:01:50.972Z,10.53
2022-09-18T00:02:50.894Z,10.51
2022-09-18T00:03:50.894Z,10.49
2022-09-18T00:04:53.496Z,10.58
2022-09-18T00:05:50.730Z,10.39
2022-09-18T00:06:50.737Z,10.51
2022-09-18T00:07:50.855Z,10.59
2022-09-18T00:08:50.757Z,10.51
2022-09-18T00:09:50.738Z,10.46
2022-09-18T00:10:50.915Z,10.48
2022-09-18T00:11:50.742Z,10.48
2022-09-18T00:12:50.862Z,10.43
2022-09-18T00:13:50.768Z,10.46
2022-09-18T00:14:50.748Z,10.59
2022-09-18T00:15:53.730Z,10.58
2022-09-18T00:16:50.750Z,10.45
2022-09-18T00:17:50.768Z,10.57
2022-09-18T00:18:50.964Z,10.53
2022-09-18T00:19:50.754Z,10.61
2022-09-18T00:20:50.747Z,10.55
2022-09-18T00:21:50.758Z,10.68
2022-09-18T00:22:50.745Z,10.69
2022-09-18T00:23:50.897Z,10.71
2022-09-18T00:24:50.780Z,10.72
2022-09-18T00:25:50.759Z,10.58
2022-09-18T00:26:53.705Z,10.64
2022-09-18T00:27:50.765Z,10.57
2022-09-18T00:28:50.907Z,10.55
2022-09-18T00:29:50.777Z,10.67
2022-09-18T00:30:50.769Z,10.57
2022-09-18T00:31:51.032Z,10.57
2022-09-18T00:32:50.777Z,10.58
2022-09-18T00:33:50.899Z,10.68
2022-09-18T00:34:50.771Z,10.62
2022-09-18T00:35:50.767Z,10.62
2022-09-18T00:36:50.787Z,10.55
2022-09-18T00:37:53.556Z,10.64
2022-09-18T00:38:50.797Z,10.57
2022-09-18T00:39:50.931Z,10.58
2022-09-18T00:40:50.787Z,10.61
2022-09-18T00:41:56.038Z,10.61
2022-09-18T00:42:51.457Z,10.62
2022-09-18T00:44:03.051Z,10.64
2022-09-18T00:45:02.456Z,10.49
2022-09-18T00:46:02.690Z,10.59
2022-09-18T00:47:01.916Z,10.61
2022-09-18T00:47:50.831Z,10.59
2022-09-18T00:48:54.274Z,10.55
2022-09-18T00:49:51.645Z,10.64
2022-09-18T00:50:50.801Z,10.68
2022-09-18T00:51:52.825Z,10.59
2022-09-18T00:52:50.812Z,10.64
2022-09-18T00:53:51.000Z,10.57
2022-09-18T00:54:50.803Z,10.65
2022-09-18T00:55:50.925Z,10.62
2022-09-18T00:56:50.803Z,10.59
2022-09-18T00:57:50.816Z,10.58
2022-09-18T00:58:50.938Z,10.67
2022-09-18T00:59:53.799Z,10.53
2022-09-18T01:00:51.035Z,10.64
2022-09-18T01:01:51.023Z,10.72
2022-09-18T01:02:50.826Z,10.69
2022-09-18T01:03:51.010Z,10.71
2022-09-18T01:04:50.833Z,10.76
2022-09-18T01:05:50.846Z,10.76
2022-09-18T01:06:50.820Z,10.75
2022-09-18T01:07:50.820Z,10.69
2022-09-18T01:08:50.826Z,10.82
2022-09-18T01:09:50.824Z,10.79
2022-09-18T01:10:53.854Z,10.72
2022-09-18T01:11:50.956Z,10.86
2022-09-18T01:12:50.855Z,10.83
2022-09-18T01:13:50.864Z,10.86
2022-09-18T01:14:50.963Z,10.89
2022-09-18T01:15:51.192Z,10.79
2022-09-18T01:16:50.841Z,10.89
2022-09-18T01:17:50.892Z,10.9
2022-09-18T01:18:50.941Z,10.98
2022-09-18T01:19:50.862Z,10.98
2022-09-18T01:20:50.869Z,11
2022-09-18T01:21:50.860Z,10.89
2022-09-18T01:22:50.862Z,10.9
2022-09-18T01:23:50.903Z,11.01
2022-09-18T01:24:50.859Z,11.02
2022-09-18T01:25:50.865Z,11.02
2022-09-18T01:26:53.989Z,11.04
2022-09-18T01:27:50.863Z,11
2022-09-18T01:28:50.860Z,11.07
2022-09-18T01:29:50.896Z,11.1
2022-09-18T01:30:50.998Z,10.92
2022-09-18T01:31:51.239Z,11.01
2022-09-18T01:32:50.868Z,11.01
2022-09-18T01:33:50.929Z,11.1
2022-09-18T01:34:50.873Z,11.05
2022-09-18T01:35:50.881Z,11
2022-09-18T01:36:50.875Z,10.97
2022-09-18T01:37:50.872Z,11.1
2022-09-18T01:38:50.889Z,10.94
2022-09-18T01:39:51.007Z,10.95
2022-09-18T01:40:50.896Z,11.04
2022-09-18T01:41:50.904Z,11.08
2022-09-18T01:42:51.003Z,11
2022-09-18T01:43:50.893Z,10.87
2022-09-18T01:44:50.892Z,11.07
2022-09-18T01:45:50.890Z,11
2022-09-18T01:46:51.219Z,10.9
2022-09-18T01:47:51.001Z,10.98
2022-09-18T01:48:50.913Z,10.98
2022-09-18T01:49:50.930Z,11
2022-09-18T01:50:50.901Z,10.92
2022-09-18T01:51:50.900Z,10.87
2022-09-18T01:52:50.915Z,10.98
2022-09-18T01:53:53.915Z,10.9
2022-09-18T01:54:50.920Z,10.94
2022-09-18T01:55:50.904Z,10.97
2022-09-18T01:56:50.904Z,10.87
2022-09-18T01:57:50.913Z,10.9
2022-09-18T01:58:54.108Z,10.97
2022-09-18T01:59:50.964Z,10.98
2022-09-18T02:00:50.923Z,10.89
2022-09-18T02:01:51.437Z,10.84
2022-09-18T02:02:51.198Z,10.89
2022-09-18T02:03:51.191Z,10.9
2022-09-18T02:04:53.957Z,10.79
2022-09-18T02:05:50.919Z,10.94
2022-09-18T02:06:50.915Z,10.84
2022-09-18T02:07:50.929Z,10.79
2022-09-18T02:08:50.932Z,10.8
2022-09-18T02:09:52.197Z,10.79
2022-09-18T02:10:50.926Z,10.79
2022-09-18T02:11:50.923Z,10.84
2022-09-18T02:12:50.934Z,10.8
2022-09-18T02:13:50.944Z,10.89
2022-09-18T02:14:51.125Z,10.84
2022-09-18T02:15:54.037Z,10.89
2022-09-18T02:16:50.968Z,10.95
2022-09-18T02:17:50.944Z,10.89
2022-09-18T02:18:51.123Z,10.95
2022-09-18T02:19:51.097Z,10.95
2022-09-18T02:20:53.797Z,11.04
2022-09-18T02:21:50.939Z,11.04
2022-09-18T02:22:50.944Z,10.95
2022-09-18T02:23:50.955Z,10.98
2022-09-18T02:24:50.989Z,11.01
2022-09-18T02:25:50.950Z,11.1
2022-09-18T02:26:50.949Z,11.07
2022-09-18T02:27:50.992Z,10.92
2022-09-18T02:28:51.036Z,11
2022-09-18T02:29:51.023Z,10.92
2022-09-18T02:30:51.117Z,10.97
2022-09-18T02:31:54.542Z,10.97
2022-09-18T02:32:50.963Z,10.98
2022-09-18T02:33:51.147Z,10.9
2022-09-18T02:34:51.119Z,10.92
2022-09-18T02:35:50.998Z,10.98
2022-09-18T02:36:51.043Z,11.02
2022-09-18T02:37:50.969Z,11.07
2022-09-18T02:38:50.981Z,11.01
2022-09-18T02:39:50.993Z,11.02
2022-09-18T02:40:50.992Z,11.05
2022-09-18T02:41:50.988Z,11.07
2022-09-18T02:42:53.821Z,11.08
2022-09-18T02:43:50.980Z,11.05
2022-09-18T02:44:51.000Z,11.04
2022-09-18T02:45:51.057Z,11.04
2022-09-18T02:46:51.236Z,11.01
2022-09-18T02:47:51.007Z,11.01
2022-09-18T02:48:51.203Z,11.07
2022-09-18T02:49:51.026Z,11.05
2022-09-18T02:50:51.113Z,11.16
2022-09-18T02:51:51.133Z,11.12
2022-09-18T02:52:51.014Z,11.12
2022-09-18T02:53:54.016Z,11.12
2022-09-18T02:54:51.007Z,11.15
2022-09-18T02:55:51.048Z,11.19
2022-09-18T02:56:51.010Z,11.08
2022-09-18T02:57:51.009Z,11.15
2022-09-18T02:58:51.006Z,11.08
2022-09-18T02:59:51.025Z,11.01
2022-09-18T03:00:51.024Z,11.12
2022-09-18T03:01:51.409Z,11.12
2022-09-18T03:02:51.407Z,11.1
2022-09-18T03:03:51.193Z,11.1
2022-09-18T03:04:52.991Z,10.98
2022-09-18T03:05:51.014Z,11.08
2022-09-18T03:06:51.139Z,11.05
2022-09-18T03:07:51.144Z,11.05
2022-09-18T03:08:51.020Z,11.05
2022-09-18T03:09:51.044Z,11.19
2022-09-18T03:10:51.024Z,11.15
2022-09-18T03:11:51.020Z,11.19
2022-09-18T03:12:51.029Z,11.19
2022-09-18T03:13:51.042Z,11.19
2022-09-18T03:14:51.049Z,11.18
2022-09-18T03:15:54.266Z,11.08
2022-09-18T03:16:51.035Z,11.15
2022-09-18T03:17:51.033Z,11.2
2022-09-18T03:18:51.250Z,11.08
2022-09-18T03:19:51.079Z,11.08
2022-09-18T03:20:51.041Z,11.15
2022-09-18T03:21:51.046Z,11.05
2022-09-18T03:22:51.167Z,11.15
2022-09-18T03:23:51.160Z,11.16
2022-09-18T03:24:51.067Z,11.12
2022-09-18T03:25:51.044Z,11.22
2022-09-18T03:26:53.855Z,11.12
2022-09-18T03:27:51.046Z,11.15
2022-09-18T03:28:51.049Z,11.1
2022-09-18T03:29:51.070Z,11.16
2022-09-18T03:30:51.056Z,11.07
2022-09-18T03:31:51.307Z,11.31
2022-09-18T03:32:51.053Z,11.2
2022-09-18T03:33:51.242Z,11.13
2022-09-18T03:34:51.215Z,11.18
2022-09-18T03:35:51.074Z,11.15
2022-09-18T03:36:51.081Z,11.19
2022-09-18T03:37:53.936Z,11.25
2022-09-18T03:38:51.185Z,11.26
2022-09-18T03:39:51.303Z,11.16
2022-09-18T03:40:52.536Z,11.18
2022-09-18T03:41:51.089Z,11.26
2022-09-18T03:42:51.076Z,11.22
2022-09-18T03:43:51.081Z,11.22
2022-09-18T03:44:51.093Z,11.26
2022-09-18T03:45:51.089Z,11.23
2022-09-18T03:46:51.366Z,11.25
2022-09-18T03:47:51.078Z,11.25
2022-09-18T03:48:51.163Z,11.26
2022-09-18T03:49:51.111Z,11.26
2022-09-18T03:50:51.207Z,11.43
2022-09-18T03:51:51.097Z,11.4
2022-09-18T03:52:55.677Z,11.44
2022-09-18T03:53:54.349Z,11.43
2022-09-18T03:54:51.112Z,11.41
2022-09-18T03:55:51.217Z,11.38
2022-09-18T03:56:51.087Z,11.49
2022-09-18T03:57:51.094Z,11.44
2022-09-18T03:58:51.278Z,11.51
2022-09-18T03:59:50.946Z,11.52
2022-09-18T04:00:51.103Z,11.48
2022-09-18T04:01:51.311Z,11.53
2022-09-18T04:02:51.356Z,11.51
2022-09-18T04:03:51.245Z,11.49
2022-09-18T04:04:51.141Z,11.56
2022-09-18T04:05:51.135Z,11.58
2022-09-18T04:06:51.269Z,11.58
2022-09-18T04:07:51.132Z,11.41
2022-09-18T04:08:51.115Z,11.49
2022-09-18T04:09:51.312Z,11.52
2022-09-18T04:10:51.177Z,11.37
2022-09-18T04:11:51.272Z,11.44
2022-09-18T04:12:51.137Z,11.34
2022-09-18T04:13:51.134Z,11.48
2022-09-18T04:14:51.190Z,11.33
2022-09-18T04:15:51.287Z,11.37
2022-09-18T04:16:51.190Z,11.51
2022-09-18T04:17:51.155Z,11.41
2022-09-18T04:18:51.274Z,11.41
2022-09-18T04:19:56.275Z,11.51
2022-09-18T04:20:54.387Z,11.45
2022-09-18T04:21:51.131Z,11.45
2022-09-18T04:22:51.285Z,11.43
2022-09-18T04:23:51.160Z,11.51
2022-09-18T04:24:51.142Z,11.43
2022-09-18T04:25:51.505Z,11.48
2022-09-18T04:26:51.139Z,11.56
2022-09-18T04:27:51.264Z,11.52
2022-09-18T04:28:51.139Z,11.62
2022-09-18T04:29:51.149Z,11.68
2022-09-18T04:30:51.163Z,11.67
2022-09-18T04:31:54.537Z,11.62
2022-09-18T04:32:51.158Z,11.59
2022-09-18T04:33:51.262Z,11.67
2022-09-18T04:34:51.168Z,11.53
2022-09-18T04:35:51.161Z,11.59
2022-09-18T04:36:54.283Z,11.52
2022-09-18T04:37:51.169Z,11.52
2022-09-18T04:38:51.293Z,11.55
2022-09-18T04:39:51.271Z,11.53
2022-09-18T04:40:51.197Z,11.53
2022-09-18T04:41:51.300Z,11.52
2022-09-18T04:42:54.068Z,11.58
2022-09-18T04:43:51.176Z,11.58
2022-09-18T04:44:51.179Z,11.52
2022-09-18T04:45:51.180Z,11.56
2022-09-18T04:46:52.469Z,11.48
2022-09-18T04:47:53.948Z,11.63
2022-09-18T04:48:51.399Z,11.38
2022-09-18T04:49:51.181Z,11.49
2022-09-18T04:50:51.181Z,11.45
2022-09-18T04:51:51.209Z,11.49
2022-09-18T04:52:51.190Z,11.56
2022-09-18T04:53:53.968Z,11.53
2022-09-18T04:54:51.315Z,11.51
2022-09-18T04:55:51.231Z,11.41
2022-09-18T04:56:51.188Z,11.56
2022-09-18T04:57:57.046Z,11.53
2022-09-18T04:58:54.203Z,11.41
2022-09-18T04:59:51.202Z,11.55
2022-09-18T05:00:51.376Z,11.48
2022-09-18T05:01:51.467Z,11.51
2022-09-18T05:02:51.214Z,11.45
2022-09-18T05:03:51.435Z,11.49
2022-09-18T05:04:51.201Z,11.44
2022-09-18T05:05:51.211Z,11.56
2022-09-18T05:06:51.215Z,11.58
2022-09-18T05:07:51.210Z,11.49
2022-09-18T05:08:51.216Z,11.55
2022-09-18T05:09:54.135Z,11.45
2022-09-18T05:10:51.228Z,11.53
2022-09-18T05:11:51.221Z,11.56
2022-09-18T05:12:51.222Z,11.52
2022-09-18T05:13:51.461Z,11.52
2022-09-18T05:14:51.220Z,11.59
2022-09-18T05:15:51.413Z,11.51
2022-09-18T05:16:51.227Z,11.62
2022-09-18T05:17:51.235Z,11.56
2022-09-18T05:18:51.323Z,11.59
2022-09-18T05:19:51.244Z,11.52
2022-09-18T05:20:54.313Z,11.62
2022-09-18T05:21:51.231Z,11.56
2022-09-18T05:22:51.237Z,11.55
2022-09-18T05:23:51.278Z,11.62
2022-09-18T05:24:51.250Z,11.7
2022-09-18T05:25:51.404Z,11.62
2022-09-18T05:26:51.234Z,11.63
2022-09-18T05:27:51.244Z,11.71
2022-09-18T05:28:51.245Z,11.65
2022-09-18T05:29:51.495Z,11.74
2022-09-18T05:30:51.304Z,11.8
2022-09-18T05:31:54.460Z,11.68
2022-09-18T05:32:52.849Z,11.77
2022-09-18T05:33:51.448Z,11.7
2022-09-18T05:34:51.269Z,11.81
2022-09-18T05:35:51.306Z,11.76
2022-09-18T05:36:51.299Z,11.71
2022-09-18T05:37:51.255Z,11.78
2022-09-18T05:38:51.258Z,11.89
2022-09-18T05:39:51.405Z,11.73
2022-09-18T05:40:51.291Z,11.73
2022-09-18T05:41:51.249Z,11.8
2022-09-18T05:42:54.092Z,11.78
2022-09-18T05:43:51.434Z,11.68
2022-09-18T05:44:51.308Z,11.8
2022-09-18T05:45:51.536Z,11.73
2022-09-18T05:46:51.548Z,11.63
2022-09-18T05:47:51.334Z,11.7
2022-09-18T05:48:51.399Z,11.62
2022-09-18T05:49:51.310Z,11.7
2022-09-18T05:50:51.385Z,11.63
2022-09-18T05:51:51.336Z,11.62
2022-09-18T05:52:51.363Z,11.62
2022-09-18T05:53:55.611Z,11.52
2022-09-18T05:54:51.300Z,11.56
2022-09-18T05:55:51.369Z,11.59
2022-09-18T05:56:51.261Z,11.59
2022-09-18T05:57:51.448Z,11.52
2022-09-18T05:58:51.440Z,11.56
2022-09-18T05:59:51.415Z,11.55
2022-09-18T06:00:51.475Z,11.58
2022-09-18T06:01:52.406Z,11.58
2022-09-18T06:02:51.617Z,11.43
2022-09-18T06:03:51.405Z,11.49
2022-09-18T06:04:54.182Z,11.44
2022-09-18T06:05:51.450Z,11.53
2022-09-18T06:06:51.746Z,11.53
2022-09-18T06:07:51.313Z,11.49
2022-09-18T06:08:51.313Z,11.58
2022-09-18T06:09:51.322Z,11.53
2022-09-18T06:10:51.487Z,11.48
2022-09-18T06:11:51.305Z,11.56
2022-09-18T06:12:51.357Z,11.58
2022-09-18T06:13:51.572Z,11.48
2022-09-18T06:14:51.322Z,11.48
2022-09-18T06:15:51.610Z,11.41
2022-09-18T06:16:51.454Z,11.48
2022-09-18T06:17:51.623Z,11.48
2022-09-18T06:18:51.642Z,11.51
2022-09-18T06:19:51.393Z,11.45
2022-09-18T06:20:54.376Z,11.44
2022-09-18T06:21:51.397Z,11.49
2022-09-18T06:22:51.563Z,11.53
2022-09-18T06:23:51.413Z,11.76
2022-09-18T06:24:51.433Z,11.88
2022-09-18T06:25:51.328Z,11.88
2022-09-18T06:26:51.509Z,11.6
2022-09-18T06:27:51.396Z,11.7
2022-09-18T06:28:51.558Z,11.53
2022-09-18T06:29:51.504Z,11.52
2022-09-18T06:30:54.579Z,11.53
2022-09-18T06:31:51.998Z,11.68
2022-09-18T06:32:51.408Z,11.53
2022-09-18T06:33:51.739Z,11.58
2022-09-18T06:34:51.482Z,11.67
2022-09-18T06:35:51.365Z,11.59
2022-09-18T06:36:51.913Z,11.63
2022-09-18T06:37:51.433Z,11.63
2022-09-18T06:38:51.361Z,11.55
2022-09-18T06:39:51.419Z,11.59
2022-09-18T06:40:51.469Z,11.6
2022-09-18T06:41:51.404Z,11.58
2022-09-18T06:42:51.296Z,11.59
2022-09-18T06:43:51.443Z,11.58
2022-09-18T06:44:51.366Z,11.45
2022-09-18T06:45:51.476Z,11.55
2022-09-18T06:46:51.748Z,11.52
2022-09-18T06:47:54.381Z,11.58
2022-09-18T06:48:51.531Z,11.41
2022-09-18T06:49:51.493Z,11.51
2022-09-18T06:50:51.451Z,11.56
2022-09-18T06:51:51.477Z,11.65
2022-09-18T06:52:51.434Z,11.49
2022-09-18T06:53:51.362Z,11.4
2022-09-18T06:54:51.415Z,11.45
2022-09-18T06:55:51.409Z,11.53
2022-09-18T06:56:51.286Z,11.55
2022-09-18T06:57:51.388Z,11.56
2022-09-18T06:58:54.429Z,11.53
2022-09-18T06:59:51.391Z,11.58
2022-09-18T07:00:51.759Z,11.51
2022-09-18T07:01:51.786Z,11.59
2022-09-18T07:02:51.423Z,11.6
2022-09-18T07:03:54.260Z,11.58
2022-09-18T07:04:51.442Z,11.8
2022-09-18T07:05:51.693Z,11.6
2022-09-18T07:06:51.409Z,11.56
2022-09-18T07:07:51.334Z,11.62
2022-09-18T07:08:51.404Z,11.52
2022-09-18T07:09:54.537Z,11.63
2022-09-18T07:10:51.454Z,11.55
2022-09-18T07:11:51.535Z,11.63
2022-09-18T07:12:51.431Z,11.58
2022-09-18T07:13:51.467Z,11.67
2022-09-18T07:14:54.054Z,11.59
2022-09-18T07:15:51.571Z,11.62
2022-09-18T07:16:51.454Z,11.77
2022-09-18T07:17:51.580Z,11.77
2022-09-18T07:18:51.622Z,11.78
2022-09-18T07:19:51.426Z,11.91
2022-09-18T07:20:54.205Z,11.89
2022-09-18T07:21:51.735Z,11.91
2022-09-18T07:22:52.245Z,12.07
2022-09-18T07:23:51.542Z,12.05
2022-09-18T07:24:51.474Z,12.05
2022-09-18T07:25:54.566Z,12.15
2022-09-18T07:26:51.533Z,12.07
2022-09-18T07:27:51.502Z,11.99
2022-09-18T07:28:51.302Z,12.17
2022-09-18T07:29:51.497Z,12.37
2022-09-18T07:30:51.523Z,12.32
2022-09-18T07:31:51.936Z,12
2022-09-18T07:32:51.585Z,12.29
2022-09-18T07:33:51.737Z,12.3
2022-09-18T07:34:51.454Z,12.29
2022-09-18T07:35:51.564Z,12.29
2022-09-18T07:36:55.034Z,12.2
2022-09-18T07:37:51.675Z,12.15
2022-09-18T07:38:51.541Z,12.02
2022-09-18T07:39:51.517Z,11.93
2022-09-18T07:40:51.465Z,12.02
2022-09-18T07:41:51.472Z,12.05
2022-09-18T07:42:51.452Z,12.02
2022-09-18T07:43:51.460Z,12
2022-09-18T07:44:52.347Z,12.08
2022-09-18T07:45:51.633Z,11.95
2022-09-18T07:46:51.745Z,12
2022-09-18T07:47:54.210Z,11.89
2022-09-18T07:48:51.605Z,11.85
2022-09-18T07:49:51.759Z,11.99
2022-09-18T07:50:52.051Z,11.93
2022-09-18T07:51:51.677Z,11.93
2022-09-18T07:52:52.009Z,11.95
2022-09-18T07:53:51.505Z,11.96
2022-09-18T07:54:51.653Z,11.96
2022-09-18T07:55:51.482Z,11.83
2022-09-18T07:56:51.985Z,11.88
2022-09-18T07:57:51.732Z,11.91
2022-09-18T07:58:54.392Z,11.93
2022-09-18T07:59:51.645Z,11.93
2022-09-18T08:00:51.641Z,11.77
2022-09-18T08:01:52.010Z,11.93
2022-09-18T08:02:52.066Z,11.88
2022-09-18T08:03:52.098Z,11.88
2022-09-18T08:04:51.570Z,11.78
2022-09-18T08:05:51.977Z,11.88
2022-09-18T08:06:51.496Z,11.71
2022-09-18T08:07:51.812Z,11.85
2022-09-18T08:08:57.729Z,11.88
2022-09-18T08:09:54.571Z,11.93
2022-09-18T08:10:51.544Z,11.89
2022-09-18T08:11:51.521Z,11.89
2022-09-18T08:12:51.504Z,11.85
2022-09-18T08:13:51.515Z,11.93
2022-09-18T08:15:00.442Z,11.95
2022-09-18T08:15:51.843Z,11.89
2022-09-18T08:16:51.576Z,11.99
2022-09-18T08:17:51.762Z,11.85
2022-09-18T08:18:51.655Z,11.78
2022-09-18T08:19:51.709Z,11.73
2022-09-18T08:20:54.433Z,11.95
2022-09-18T08:21:51.746Z,11.91
2022-09-18T08:22:52.011Z,11.89
2022-09-18T08:23:51.688Z,11.95
2022-09-18T08:24:51.889Z,11.95
2022-09-18T08:25:51.601Z,11.96
2022-09-18T08:26:51.906Z,11.91
2022-09-18T08:27:51.657Z,11.86
2022-09-18T08:28:54.749Z,11.86
2022-09-18T08:29:51.556Z,11.93
2022-09-18T08:30:51.586Z,12.03
2022-09-18T08:31:54.966Z,12.03
2022-09-18T08:32:51.652Z,11.99
2022-09-18T08:33:51.998Z,11.93
2022-09-18T08:34:51.542Z,11.99
2022-09-18T08:35:51.547Z,12.1
2022-09-18T08:36:51.735Z,12.03
2022-09-18T08:37:51.553Z,12.12
2022-09-18T08:38:51.545Z,12.02
2022-09-18T08:39:51.662Z,12.15
2022-09-18T08:40:51.801Z,12.15
2022-09-18T08:41:51.729Z,12.15
2022-09-18T08:42:51.744Z,12.21
2022-09-18T08:43:51.841Z,12.18
2022-09-18T08:44:51.788Z,12.28
2022-09-18T08:45:51.715Z,12.23
2022-09-18T08:46:52.082Z,12.26
2022-09-18T08:47:51.739Z,12.33
2022-09-18T08:48:52.044Z,12.25
2022-09-18T08:49:51.693Z,12.25
2022-09-18T08:50:51.567Z,12.28
2022-09-18T08:51:51.585Z,12.28
2022-09-18T08:52:52.269Z,12.29
2022-09-18T08:53:51.588Z,12.35
2022-09-18T08:54:51.690Z,12.26
2022-09-18T08:55:51.544Z,12.37
2022-09-18T08:56:51.844Z,12.35
2022-09-18T08:57:52.162Z,12.33
2022-09-18T08:58:51.687Z,12.35
2022-09-18T08:59:51.590Z,12.36
2022-09-18T09:00:51.823Z,12.43
2022-09-18T09:01:53.353Z,12.47
2022-09-18T09:02:51.847Z,12.43
2022-09-18T09:03:51.904Z,12.43
2022-09-18T09:04:51.589Z,12.55
2022-09-18T09:05:52.214Z,12.53
2022-09-18T09:06:52.414Z,12.55
2022-09-18T09:07:51.742Z,12.7
2022-09-18T09:08:51.720Z,12.69
2022-09-18T09:09:52.192Z,12.78
2022-09-18T09:10:51.599Z,12.8
2022-09-18T09:11:52.240Z,12.9
2022-09-18T09:12:52.241Z,13.01
2022-09-18T09:13:51.613Z,13.16
2022-09-18T09:15:01.792Z,13.02
2022-09-18T09:15:51.772Z,13.3
2022-09-18T09:16:51.791Z,13.4
2022-09-18T09:17:51.649Z,13.55
2022-09-18T09:18:51.705Z,13.64
2022-09-18T09:19:51.615Z,13.47
2022-09-18T09:20:51.629Z,13.65
2022-09-18T09:21:51.639Z,13.71
2022-09-18T09:22:51.625Z,13.62
2022-09-18T09:23:51.629Z,13.64
2022-09-18T09:24:51.833Z,13.79
2022-09-18T09:25:54.759Z,13.8
2022-09-18T09:26:51.981Z,13.78
2022-09-18T09:27:51.641Z,13.95
2022-09-18T09:28:51.880Z,13.91
2022-09-18T09:29:51.924Z,13.87
2022-09-18T09:30:54.770Z,14.04
2022-09-18T09:31:51.890Z,13.86
2022-09-18T09:32:52.671Z,13.8
2022-09-18T09:33:51.637Z,13.85
2022-09-18T09:34:51.649Z,13.85
2022-09-18T09:35:51.696Z,13.98
2022-09-18T09:36:54.764Z,13.87
2022-09-18T09:37:51.780Z,13.86
2022-09-18T09:38:51.655Z,13.8
2022-09-18T09:39:53.711Z,13.93
2022-09-18T09:40:51.797Z,13.98
2022-09-18T09:41:53.490Z,13.86
2022-09-18T09:42:51.652Z,13.94
2022-09-18T09:43:51.666Z,13.94
2022-09-18T09:44:51.910Z,13.97
2022-09-18T09:45:51.666Z,14.16
2022-09-18T09:46:51.918Z,14.19
2022-09-18T09:47:54.414Z,14.28
2022-09-18T09:48:51.673Z,14.08
2022-09-18T09:49:51.667Z,14.37
2022-09-18T09:50:51.694Z,14.31
2022-09-18T09:51:51.685Z,14.22
2022-09-18T09:52:54.681Z,14.38
2022-09-18T09:53:51.679Z,14.4
2022-09-18T09:54:51.753Z,14.11
2022-09-18T09:55:52.404Z,14.43
2022-09-18T09:56:51.820Z,14.41
2022-09-18T09:57:51.988Z,14.43
2022-09-18T09:58:51.678Z,14.19
2022-09-18T09:59:51.685Z,14.19
2022-09-18T10:00:52.220Z,14.13
2022-09-18T10:01:52.336Z,14.28
2022-09-18T10:02:51.707Z,14.3
2022-09-18T10:03:54.564Z,14.31
2022-09-18T10:04:51.951Z,14.48
2022-09-18T10:05:57.510Z,14.38
2022-09-18T10:06:51.722Z,14.22
2022-09-18T10:07:51.691Z,14.43
2022-09-18T10:08:51.707Z,14.45
2022-09-18T10:09:51.715Z,14.18
2022-09-18T10:10:51.713Z,14.23
2022-09-18T10:11:57.089Z,14.13
2022-09-18T10:12:51.817Z,14.04
2022-09-18T10:13:51.716Z,13.94
2022-09-18T10:14:55.757Z,13.86
2022-09-18T10:15:51.912Z,13.97
2022-09-18T10:16:52.053Z,13.86
2022-09-18T10:17:51.707Z,13.79
2022-09-18T10:18:51.806Z,13.93
2022-09-18T10:19:51.706Z,13.91
2022-09-18T10:20:51.724Z,14.11
2022-09-18T10:21:51.737Z,13.95
2022-09-18T10:22:51.717Z,14.11
2022-09-18T10:23:51.724Z,14.19
2022-09-18T10:24:51.824Z,14.19
2022-09-18T10:25:54.781Z,14.49
2022-09-18T10:26:51.785Z,14.55
2022-09-18T10:27:51.759Z,14.44
2022-09-18T10:28:51.858Z,14.38
2022-09-18T10:29:51.818Z,14.43
2022-09-18T10:30:51.735Z,14.31
2022-09-18T10:31:52.112Z,14.26
2022-09-18T10:32:52.008Z,14.22
2022-09-18T10:33:51.747Z,14.25
2022-09-18T10:34:51.748Z,14.16
2022-09-18T10:35:51.774Z,14.04
2022-09-18T10:36:53.148Z,13.89
2022-09-18T10:37:51.783Z,13.98
2022-09-18T10:38:51.759Z,13.93
2022-09-18T10:39:52.073Z,14
2022-09-18T10:40:51.983Z,13.94
2022-09-18T10:41:51.983Z,13.98
2022-09-18T10:42:51.656Z,13.97
2022-09-18T10:43:51.753Z,13.95
2022-09-18T10:44:51.998Z,13.94
2022-09-18T10:45:51.777Z,13.93
2022-09-18T10:46:52.038Z,14.07
2022-09-18T10:47:55.009Z,14.07
2022-09-18T10:48:52.041Z,14.15
2022-09-18T10:49:51.849Z,13.91
2022-09-18T10:50:51.812Z,14.01
2022-09-18T10:51:51.764Z,13.97
2022-09-18T10:52:51.855Z,13.94
2022-09-18T10:53:51.771Z,13.87
2022-09-18T10:54:51.823Z,13.91
2022-09-18T10:55:56.229Z,13.95
2022-09-18T10:56:51.800Z,13.83
2022-09-18T10:57:51.917Z,13.82
2022-09-18T10:58:54.629Z,13.8
2022-09-18T10:59:51.839Z,13.52
2022-09-18T11:00:52.136Z,13.64
2022-09-18T11:01:52.085Z,13.67
2022-09-18T11:02:51.978Z,13.61
2022-09-18T11:03:51.951Z,13.55
2022-09-18T11:04:52.023Z,13.54
2022-09-18T11:05:51.793Z,13.55
2022-09-18T11:06:51.851Z,13.46
2022-09-18T11:07:51.842Z,13.45
2022-09-18T11:08:51.860Z,13.49
2022-09-18T11:09:51.732Z,13.52
2022-09-18T11:10:52.032Z,13.5
2022-09-18T11:11:51.810Z,13.6
2022-09-18T11:12:57.972Z,13.54
2022-09-18T11:13:51.806Z,13.5
2022-09-18T11:14:51.802Z,13.57
2022-09-18T11:15:51.999Z,13.54
2022-09-18T11:16:52.176Z,13.58
2022-09-18T11:17:51.916Z,13.58
2022-09-18T11:18:52.198Z,13.68
2022-09-18T11:19:52.217Z,13.68
2022-09-18T11:20:52.081Z,13.79
2022-09-18T11:21:52.154Z,13.78
2022-09-18T11:22:52.049Z,13.73
2022-09-18T11:23:51.826Z,13.67
2022-09-18T11:24:52.488Z,13.55
2022-09-18T11:25:51.851Z,13.54
2022-09-18T11:26:51.948Z,13.47
2022-09-18T11:27:51.827Z,13.49
2022-09-18T11:28:52.440Z,13.64
2022-09-18T11:29:52.102Z,13.57
2022-09-18T11:30:51.945Z,13.52
2022-09-18T11:31:52.153Z,13.64
2022-09-18T11:32:51.976Z,13.71
2022-09-18T11:33:51.981Z,13.64
2022-09-18T11:34:51.894Z,13.61
2022-09-18T11:35:51.973Z,13.61
2022-09-18T11:36:51.974Z,13.54
2022-09-18T11:37:51.852Z,13.58
2022-09-18T11:38:52.149Z,13.61
2022-09-18T11:39:51.981Z,13.68
2022-09-18T11:40:51.854Z,13.55
2022-09-18T11:41:54.631Z,13.49
2022-09-18T11:42:51.910Z,13.6
2022-09-18T11:43:51.911Z,13.62
2022-09-18T11:44:51.896Z,13.49
2022-09-18T11:45:51.762Z,13.55
2022-09-18T11:46:52.100Z,13.57
2022-09-18T11:47:51.994Z,13.61
2022-09-18T11:48:51.989Z,13.7
2022-09-18T11:49:51.866Z,13.55
2022-09-18T11:50:51.875Z,13.68
2022-09-18T11:51:51.985Z,13.85
2022-09-18T11:52:54.843Z,13.7
2022-09-18T11:53:51.881Z,13.82
2022-09-18T11:54:51.917Z,13.79
2022-09-18T11:55:51.887Z,14.01
2022-09-18T11:56:51.872Z,13.97
2022-09-18T11:57:52.623Z,14.01
2022-09-18T11:58:51.911Z,14.11
2022-09-18T11:59:51.896Z,14.16
2022-09-18T12:00:51.885Z,14.18
2022-09-18T12:01:52.077Z,14.31
2022-09-18T12:02:52.499Z,14.23
2022-09-18T12:03:54.683Z,14.16
2022-09-18T12:04:52.054Z,14.12
2022-09-18T12:05:51.919Z,14.16
2022-09-18T12:06:51.912Z,14.07
2022-09-18T12:07:50.703Z,14.36
2022-09-18T12:08:53.874Z,14.22
2022-09-18T12:09:50.537Z,14.16
2022-09-18T12:10:50.556Z,14.25
2022-09-18T12:11:50.544Z,14.19
2022-09-18T12:12:50.568Z,14.18
2022-09-18T12:13:50.590Z,14.23
2022-09-18T12:14:53.369Z,14.31
2022-09-18T12:15:50.705Z,14.4
2022-09-18T12:16:50.892Z,14.26
2022-09-18T12:17:50.617Z,14.23
2022-09-18T12:18:50.555Z,14.23
2022-09-18T12:19:56.793Z,14.31
2022-09-18T12:20:50.544Z,14.19
2022-09-18T12:21:50.552Z,14.31
2022-09-18T12:22:50.568Z,14.38
2022-09-18T12:23:50.729Z,14.38
2022-09-18T12:24:50.728Z,14.41
2022-09-18T12:25:50.562Z,14.44
2022-09-18T12:26:50.557Z,14.41
2022-09-18T12:27:50.617Z,14.41
2022-09-18T12:28:50.656Z,14.48
2022-09-18T12:29:50.572Z,14.55
2022-09-18T12:30:53.463Z,14.56
2022-09-18T12:31:50.833Z,14.48
2022-09-18T12:32:50.602Z,14.66
2022-09-18T12:33:50.656Z,14.63
2022-09-18T12:34:50.620Z,14.67
2022-09-18T12:35:50.709Z,14.71
2022-09-18T12:36:50.623Z,14.58
2022-09-18T12:37:50.592Z,14.55
2022-09-18T12:38:51.244Z,14.66
2022-09-18T12:39:51.591Z,14.63
2022-09-18T12:40:51.439Z,14.56
2022-09-18T12:41:54.299Z,14.52
2022-09-18T12:42:51.353Z,14.53
2022-09-18T12:43:51.442Z,14.58
2022-09-18T12:44:51.278Z,14.68
2022-09-18T12:45:51.445Z,14.67
2022-09-18T12:46:51.256Z,14.68
2022-09-18T12:47:51.326Z,14.71
2022-09-18T12:48:51.285Z,14.79
2022-09-18T12:49:51.576Z,14.79
2022-09-18T12:50:51.357Z,14.78
2022-09-18T12:51:51.372Z,14.7
2022-09-18T12:53:12.661Z,14.77
2022-09-18T12:53:51.256Z,14.74
2022-09-18T12:54:51.503Z,14.97
2022-09-18T12:55:51.394Z,14.78